Time;durP1;ratioP1;P1;durP2;ratioP2;P2;SDS_P1;SDS_P2;PMS_P1;PMS_P2;Temp;Humidity;BMP_temperature;BMP_pressure;BME280_temperature;BME280_humidity;BME280_pressure;Samples;Min_cycle;Max_cycle;Signal;HPM_P1;HPM_P2
2022/12/01 00:00:39;;;;;;;;;48.50;36.00;;;;;8.54;70.58;101764.03;5073425;28;45935;-77
2022/12/01 00:03:05;;;;;;;;;38.50;35.50;;;;;8.53;70.65;101765.78;5073161;28;45850;-77
2022/12/01 00:05:30;;;;;;;;;43.25;35.75;;;;;8.50;70.78;101771.16;5073220;28;45698;-77
2022/12/01 00:07:58;;;;;;;;;45.25;36.50;;;;;8.39;70.68;101753.34;5072744;28;45712;-76
2022/12/01 00:10:27;;;;;;;;;42.25;37.00;;;;;8.44;70.76;101758.34;5073356;28;46236;-77
2022/12/01 00:12:56;;;;;;;;;45.75;36.00;;;;;8.47;70.76;101760.00;5054870;28;45783;-76
2022/12/01 00:15:25;;;;;;;;;41.25;33.50;;;;;8.42;70.76;101752.38;5073037;28;45859;-76
2022/12/01 00:21:17;;;;;;;;;46.50;38.00;;;;;8.42;70.72;101762.81;5062243;28;46135;-78
2022/12/01 00:23:46;;;;;;;;;43.75;37.75;;;;;8.40;70.97;101768.09;5073038;28;45866;-77
2022/12/01 00:26:13;;;;;;;;;38.25;33.25;;;;;8.39;70.93;101763.78;5074791;28;45603;-76
2022/12/01 00:28:38;;;;;;;;;48.25;38.50;;;;;8.31;70.88;101750.19;5075962;28;46545;-76
2022/12/01 00:31:11;;;;;;;;;53.25;42.00;;;;;8.29;70.71;101738.97;5074853;28;45569;-77
2022/12/01 00:33:37;;;;;;;;;43.00;35.75;;;;;8.33;70.75;101752.75;5055078;28;45981;-78
2022/12/01 00:36:04;;;;;;;;;50.50;39.00;;;;;8.34;70.75;101760.53;5073888;28;45899;-77
2022/12/01 00:38:30;;;;;;;;;40.50;30.50;;;;;8.37;70.72;101770.81;5073033;28;47380;-76
2022/12/01 00:40:55;;;;;;;;;43.75;37.50;;;;;8.31;70.45;101760.66;5054614;28;46300;-77
2022/12/01 00:43:21;;;;;;;;;44.00;38.75;;;;;8.26;70.28;101759.97;5073095;28;46151;-77
2022/12/01 00:45:47;;;;;;;;;44.75;36.75;;;;;8.28;70.47;101767.75;5072710;28;45866;-77
2022/12/01 00:51:33;;;;;;;;;44.50;35.50;;;;;8.17;70.29;101756.91;5072475;28;45759;-77
2022/12/01 00:53:59;;;;;;;;;44.50;39.25;;;;;8.19;70.44;101768.13;5072919;28;45756;-77
2022/12/01 00:56:24;;;;;;;;;45.75;38.75;;;;;8.12;70.29;101764.94;5073348;28;45705;-77
2022/12/01 00:58:49;;;;;;;;;57.00;40.25;;;;;8.14;70.38;101764.88;5072622;28;46315;-76
2022/12/01 01:01:15;;;;;;;;;57.00;41.25;;;;;8.10;70.35;101758.09;5053802;28;47898;-77
2022/12/01 01:07:02;;;;;;;;;42.50;35.75;;;;;8.01;70.24;101762.78;5071838;28;45945;-76
2022/12/01 01:09:27;;;;;;;;;41.75;35.50;;;;;7.97;70.33;101778.63;5053596;28;46512;-77
2022/12/01 01:11:53;;;;;;;;;42.00;34.00;;;;;7.94;70.42;101768.31;5071992;28;46099;-78
2022/12/01 01:14:20;;;;;;;;;47.25;35.75;;;;;7.91;70.46;101764.06;5071925;28;45743;-76
2022/12/01 01:16:46;;;;;;;;;38.75;35.00;;;;;7.88;70.48;101752.94;5071908;28;45798;-76
2022/12/01 01:19:11;;;;;;;;;42.00;36.00;;;;;7.87;70.46;101757.31;5071991;28;47631;-75
2022/12/01 01:21:38;;;;;;;;;43.50;38.25;;;;;7.84;70.57;101753.94;5072067;28;47029;-76
2022/12/01 01:24:03;;;;;;;;;34.75;34.50;;;;;7.85;70.69;101769.53;5071834;28;45891;-77
2022/12/01 01:26:31;;;;;;;;;39.50;34.50;;;;;7.83;70.55;101762.69;5071620;28;45791;-77
2022/12/01 01:28:59;;;;;;;;;40.25;36.75;;;;;7.76;70.62;101759.50;5071038;28;47309;-77
2022/12/01 01:31:28;;;;;;;;;39.75;33.25;;;;;7.79;70.48;101769.78;5072053;28;46222;-77
2022/12/01 01:37:15;;;;;;;;;43.50;33.25;;;;;7.70;70.77;101769.31;5071496;28;45566;-74
2022/12/01 01:39:41;;;;;;;;;39.75;34.50;;;;;7.69;70.54;101775.44;5071747;28;46500;-76
2022/12/01 01:42:11;;;;;;;;;39.50;34.25;;;;;7.70;70.76;101780.59;5071734;28;45915;-77
2022/12/01 01:44:48;;;;;;;;;42.25;35.50;;;;;7.70;70.79;101782.38;5071679;28;45879;-77
2022/12/01 01:47:19;;;;;;;;;40.75;33.75;;;;;7.65;70.81;101790.38;5070867;28;45771;-77
2022/12/01 01:49:45;;;;;;;;;46.25;37.25;;;;;7.60;70.85;101781.91;5071794;28;46527;-77
2022/12/01 01:52:12;;;;;;;;;48.75;33.25;;;;;7.62;70.70;101795.69;5071883;28;46120;-76
2022/12/01 01:54:45;;;;;;;;;38.75;33.75;;;;;7.65;70.85;101808.63;5071710;28;45891;-77
2022/12/01 01:57:14;;;;;;;;;51.50;34.25;;;;;7.63;70.74;101792.19;5071247;28;46043;-77
2022/12/01 01:59:44;;;;;;;;;46.75;32.50;;;;;7.65;70.73;101793.00;5071680;28;45561;-78
2022/12/01 02:02:11;;;;;;;;;38.75;34.50;;;;;7.64;70.60;101788.69;5071556;28;47579;-77
2022/12/01 02:04:40;;;;;;;;;43.25;32.75;;;;;7.65;70.61;101785.16;5071563;28;46054;-77
2022/12/01 02:07:07;;;;;;;;;41.25;33.50;;;;;7.63;70.78;101779.16;5070743;28;45673;-75
2022/12/01 02:09:34;;;;;;;;;43.25;33.25;;;;;7.56;70.64;101765.50;5052778;28;46323;-76
2022/12/01 02:12:44;;;;;;;;;44.75;34.50;;;;;7.65;70.56;101777.34;5071201;28;47263;-77
2022/12/01 02:15:20;;;;;;;;;42.00;34.75;;;;;7.56;70.74;101768.09;5042643;28;45610;-78
2022/12/01 02:18:01;;;;;;;;;44.25;35.75;;;;;7.65;70.67;101779.09;5071101;28;45613;-78
2022/12/01 02:21:01;;;;;;;;;37.00;30.50;;;;;7.66;70.58;101778.19;5052939;28;47557;-76
2022/12/01 02:24:10;;;;;;;;;28.00;23.00;;;;;7.67;70.40;101767.69;5071388;28;47204;-76
2022/12/01 02:26:54;;;;;;;;;39.50;28.50;;;;;7.68;70.33;101777.19;5071069;28;45584;-76
2022/12/01 02:30:01;;;;;;;;;41.25;34.75;;;;;7.71;70.23;101771.03;5071466;28;45654;-77
2022/12/01 02:35:58;;;;;;;;;34.50;32.25;;;;;7.70;69.98;101780.59;5028097;28;45812;-76
2022/12/01 02:38:27;;;;;;;;;35.75;28.00;;;;;7.74;69.86;101786.53;5027990;28;45658;-78
2022/12/01 02:41:20;;;;;;;;;28.50;24.25;;;;;7.73;70.12;101777.88;5030552;28;45836;-78
2022/12/01 02:44:07;;;;;;;;;27.00;25.25;;;;;7.74;70.07;101776.97;5031804;28;45702;-77
2022/12/01 02:46:40;;;;;;;;;51.25;35.50;;;;;7.74;69.96;101781.31;5030398;28;47487;-77
2022/12/01 02:52:28;;;;;;;;;36.25;30.50;;;;;7.71;69.92;101766.66;5031418;28;45975;-77
2022/12/01 02:54:55;;;;;;;;;45.75;34.25;;;;;7.72;70.07;101781.38;5030964;28;46933;-77
2022/12/01 02:57:21;;;;;;;;;37.75;31.75;;;;;7.75;69.94;101775.19;5030883;28;46143;-77
2022/12/01 02:59:52;;;;;;;;;37.75;33.50;;;;;7.69;70.23;101759.78;5033021;28;45895;-76
2022/12/01 03:09:32;;;;;;;;;31.75;27.00;;;;;7.73;69.87;101767.44;5069971;28;46149;-77
2022/12/01 03:12:22;;;;;;;;;37.75;33.00;;;;;7.71;70.02;101757.97;5056128;28;45884;-77
2022/12/01 03:15:07;;;;;;;;;35.25;27.75;;;;;7.66;69.90;101744.28;5074483;28;45602;-74
2022/12/01 03:17:44;;;;;;;;;36.75;29.00;;;;;7.64;69.81;101753.91;5073369;28;46651;-77
2022/12/01 03:20:30;;;;;;;;;43.25;34.75;;;;;7.59;69.86;101744.53;5055333;28;47140;-77
2022/12/01 03:23:07;;;;;;;;;39.25;28.75;;;;;7.58;69.67;101735.00;5073772;28;45790;-77
2022/12/01 03:25:33;;;;;;;;;37.50;30.25;;;;;7.62;69.83;101753.97;5074193;28;45965;-77
2022/12/01 03:28:01;;;;;;;;;34.25;29.75;;;;;7.58;69.87;101752.41;5073082;28;47370;-77
2022/12/01 03:30:35;;;;;;;;;34.25;25.25;;;;;7.59;70.04;101754.13;5055821;28;46134;-77
2022/12/01 03:33:08;;;;;;;;;41.50;34.00;;;;;7.56;69.97;101762.88;5073750;28;45770;-78
2022/12/01 03:35:47;;;;;;;;;43.75;31.25;;;;;7.48;70.04;101745.88;5073464;28;45520;-77
2022/12/01 03:38:34;;;;;;;;;45.25;37.50;;;;;7.52;70.10;101779.56;5073398;27;45579;-75
2022/12/01 03:41:08;;;;;;;;;43.00;29.75;;;;;7.52;70.41;101766.53;5073264;28;46403;-77
2022/12/01 03:43:39;;;;;;;;;40.25;31.00;;;;;7.49;70.29;101765.81;5073573;28;45743;-77
2022/12/01 03:46:34;;;;;;;;;45.75;38.25;;;;;7.41;70.37;101750.47;5072605;28;45647;-76
2022/12/01 03:52:48;;;;;;;;;45.00;31.00;;;;;7.53;70.46;101764.78;5073180;28;45873;-77
2022/12/01 03:55:31;;;;;;;;;40.00;32.00;;;;;7.54;70.54;101779.53;5073377;28;45715;-77
2022/12/01 03:58:13;;;;;;;;;40.50;33.25;;;;;7.51;70.45;101764.84;5073095;28;45567;-79
2022/12/01 04:00:39;;;;;;;;;38.25;31.00;;;;;7.49;70.40;101763.22;5073239;28;46689;-77
2022/12/01 04:03:05;;;;;;;;;36.75;32.50;;;;;7.43;70.57;101748.66;5073054;28;46117;-76
2022/12/01 04:08:52;;;;;;;;;42.25;35.00;;;;;7.46;70.73;101752.88;5073198;28;45768;-77
2022/12/01 04:14:02;;;;;;;;;37.25;31.50;;;;;7.50;70.69;101747.50;5073832;28;46070;-76
2022/12/01 04:16:27;;;;;;;;;45.00;34.75;;;;;7.50;70.61;101741.44;5072727;28;45810;-77
2022/12/01 04:18:52;;;;;;;;;37.25;32.50;;;;;7.49;70.70;101747.56;5072661;28;45692;-78
2022/12/01 04:21:18;;;;;;;;;41.00;34.50;;;;;7.44;70.74;101734.72;5072628;28;45575;-75
2022/12/01 04:24:01;;;;;;;;;43.00;35.00;;;;;7.52;70.70;101755.25;5073313;28;45682;-77
2022/12/01 04:26:32;;;;;;;;;46.25;32.50;;;;;7.44;70.47;101739.94;5072705;28;45900;-77
2022/12/01 04:28:59;;;;;;;;;50.25;35.75;;;;;7.50;70.62;101754.50;5072775;28;45635;-77
2022/12/01 04:31:25;;;;;;;;;39.75;31.75;;;;;7.52;70.54;101755.25;5073037;28;46388;-76
2022/12/01 04:33:50;;;;;;;;;41.50;33.75;;;;;7.49;70.71;101747.56;5054861;28;48021;-78
2022/12/01 04:39:37;;;;;;;;;43.50;32.50;;;;;7.44;70.63;101734.72;5073027;28;45814;-78
2022/12/01 04:42:04;;;;;;;;;40.50;27.75;;;;;7.53;70.58;101762.19;5071854;28;46309;-77
2022/12/01 04:44:30;;;;;;;;;44.25;34.50;;;;;7.53;70.64;101756.97;5072037;28;46844;-77
2022/12/01 04:46:55;;;;;;;;;39.75;29.25;;;;;7.50;70.70;101757.91;5072022;28;45926;-77
2022/12/01 04:49:21;;;;;;;;;52.75;34.50;;;;;7.52;70.35;101752.66;5071073;28;45973;-78
2022/12/01 04:51:47;;;;;;;;;37.75;30.00;;;;;7.24;70.47;101712.94;5071725;28;46608;-78
2022/12/01 04:54:12;;;;;;;;;36.50;33.00;;;;;7.48;70.51;101751.94;5072513;28;47208;-76
2022/12/01 04:56:38;;;;;;;;;35.50;28.75;;;;;7.43;70.58;101760.84;5072067;28;45566;-77
2022/12/01 04:59:03;;;;;;;;;36.00;30.75;;;;;7.46;70.49;101758.97;5072602;28;45785;-77
2022/12/01 05:01:28;;;;;;;;;35.50;28.25;;;;;7.41;70.41;101755.69;5072116;28;46526;-78
2022/12/01 05:03:55;;;;;;;;;44.50;33.00;;;;;7.43;70.54;101758.25;5071667;28;45737;-77
2022/12/01 05:06:23;;;;;;;;;27.75;21.50;;;;;7.41;70.46;101760.03;5072009;28;45867;-78
2022/12/01 05:08:50;;;;;;;;;33.25;30.25;;;;;7.37;70.67;101750.66;5053264;28;45720;-77
2022/12/01 05:11:17;;;;;;;;;42.25;36.25;;;;;7.38;70.51;101755.81;5071976;27;45645;-78
2022/12/01 05:13:44;;;;;;;;;45.50;32.00;;;;;7.37;70.59;101748.91;5072392;28;46091;-77
2022/12/01 05:16:15;;;;;;;;;49.75;36.75;;;;;7.31;70.66;101749.13;5054006;28;45839;-77
2022/12/01 05:18:41;;;;;;;;;48.25;34.00;;;;;7.39;70.56;101764.50;5071850;28;45743;-77
2022/12/01 05:21:09;;;;;;;;;43.75;32.50;;;;;7.38;70.74;101761.03;5063578;28;47338;-77
2022/12/01 05:23:36;;;;;;;;;40.25;32.75;;;;;7.33;70.73;101755.16;5071926;28;46493;-78
2022/12/01 05:26:04;;;;;;;;;47.00;38.25;;;;;7.35;70.65;101761.13;5071889;28;46071;-78
2022/12/01 05:28:30;;;;;;;;;42.00;32.50;;;;;7.31;70.69;101759.56;5071623;28;45763;-77
2022/12/01 05:30:55;;;;;;;;;39.00;31.25;;;;;7.28;70.65;101754.50;5072191;28;46035;-77
2022/12/01 05:33:22;;;;;;;;;32.00;24.75;;;;;7.28;70.79;101756.25;5072142;28;46178;-78
2022/12/01 05:35:49;;;;;;;;;44.75;34.25;;;;;7.18;70.70;101744.47;5071017;28;45711;-77
2022/12/01 05:38:14;;;;;;;;;41.25;32.75;;;;;7.26;70.73;101758.91;5071842;28;45857;-77
2022/12/01 05:40:39;;;;;;;;;41.75;36.25;;;;;7.25;70.58;101762.41;5072341;28;46509;-76
2022/12/01 05:43:05;;;;;;;;;41.00;35.25;;;;;7.26;70.58;101769.31;5071993;28;46996;-77
2022/12/01 05:45:32;;;;;;;;;45.75;35.50;;;;;7.17;70.50;101761.88;5071872;28;45511;-76
2022/12/01 05:47:59;;;;;;;;;45.75;36.25;;;;;7.22;70.57;101761.69;5072702;28;46050;-79
2022/12/01 05:50:27;;;;;;;;;43.00;36.50;;;;;7.18;70.33;101757.50;5072661;28;46348;-78
2022/12/01 05:52:52;;;;;;;;;38.25;32.25;;;;;7.20;70.61;101758.28;5071765;28;47311;-75
2022/12/01 05:55:18;;;;;;;;;41.25;33.75;;;;;7.13;70.50;101753.28;5071645;28;45559;-76
2022/12/01 05:57:44;;;;;;;;;34.00;29.75;;;;;7.19;70.54;101773.06;5071488;28;45633;-77
2022/12/01 06:00:10;;;;;;;;;43.50;31.00;;;;;7.18;70.25;101771.34;5054335;28;46358;-76
2022/12/01 06:02:35;;;;;;;;;35.75;31.25;;;;;7.16;70.31;101768.84;5054189;28;46312;-77
2022/12/01 06:05:01;;;;;;;;;35.75;28.50;;;;;7.13;70.28;101761.13;5072306;28;45701;-77
2022/12/01 06:10:50;;;;;;;;;45.75;35.75;;;;;7.13;70.25;101758.50;5073349;28;45973;-77
2022/12/01 06:13:17;;;;;;;;;40.75;32.25;;;;;7.11;70.04;101751.69;5073389;28;47469;-77
2022/12/01 06:15:43;;;;;;;;;42.00;35.00;;;;;7.04;70.07;101735.41;5076749;28;46109;-77
2022/12/01 06:18:08;;;;;;;;;38.00;33.75;;;;;7.13;70.25;101762.88;5075976;28;45713;-76
2022/12/01 06:20:34;;;;;;;;;38.25;31.00;;;;;7.11;70.09;101760.34;5075140;28;46537;-77
2022/12/01 06:22:59;;;;;;;;;36.25;33.00;;;;;7.06;70.19;101744.03;5074284;28;45970;-77
2022/12/01 06:25:25;;;;;;;;;40.50;32.50;;;;;7.09;70.18;101756.09;5075478;28;45653;-77
2022/12/01 06:27:55;;;;;;;;;39.25;32.25;;;;;7.03;69.96;101741.53;5074169;28;45818;-76
2022/12/01 06:30:20;;;;;;;;;43.75;36.50;;;;;7.14;69.99;101764.56;5073445;28;47381;-77
2022/12/01 06:32:45;;;;;;;;;42.00;33.50;;;;;7.09;69.76;101751.72;5074585;28;47291;-78
2022/12/01 06:35:11;;;;;;;;;39.00;30.00;;;;;7.16;70.05;101767.97;5074578;28;45794;-76
2022/12/01 06:40:59;;;;;;;;;46.25;34.25;;;;;7.20;69.75;101771.31;5074648;28;46202;-78
2022/12/01 06:43:24;;;;;;;;;42.00;36.25;;;;;7.12;69.70;101751.63;5056794;28;46122;-77
2022/12/01 06:45:50;;;;;;;;;40.25;35.50;;;;;7.13;69.72;101755.06;5073993;28;45563;-77
2022/12/01 06:48:15;;;;;;;;;37.00;28.75;;;;;7.18;69.84;101768.75;5074442;28;45727;-77
2022/12/01 06:50:43;;;;;;;;;37.50;30.25;;;;;7.19;69.66;101770.47;5074852;28;45710;-78
2022/12/01 06:56:42;;;;;;;;;40.75;34.50;;;;;7.12;69.75;101769.88;5072759;28;45650;-78
2022/12/01 06:59:09;;;;;;;;;43.25;33.25;;;;;7.15;69.62;101779.31;5074562;28;45778;-76
2022/12/01 07:01:35;;;;;;;;;33.75;29.50;;;;;7.09;69.58;101769.97;5056083;28;46902;-78
2022/12/01 07:04:01;;;;;;;;;44.25;36.75;;;;;7.16;69.66;101787.06;5055622;28;47948;-75
2022/12/01 07:06:28;;;;;;;;;33.00;30.25;;;;;7.15;69.57;101789.72;5073943;28;45742;-78
2022/12/01 07:08:53;;;;;;;;;36.50;31.00;;;;;7.13;69.57;101797.59;5074519;28;45841;-78
2022/12/01 07:11:19;;;;;;;;;42.25;35.50;;;;;7.12;69.50;101797.69;5074073;28;45834;-79
2022/12/01 07:13:44;;;;;;;;;30.25;29.25;;;;;7.13;69.70;101794.13;5056257;28;47571;-77
2022/12/01 07:16:10;;;;;;;;;40.00;32.75;;;;;7.13;69.98;101799.34;5074905;28;46137;-79
2022/12/01 07:18:36;;;;;;;;;40.25;29.00;;;;;7.13;69.82;101801.97;5074519;28;45653;-79
2022/12/01 07:21:04;;;;;;;;;36.50;29.75;;;;;7.07;69.73;101800.44;5074041;28;47230;-79
2022/12/01 07:26:52;;;;;;;;;40.75;35.75;;;;;7.13;69.50;101813.22;5072588;28;45841;-77
2022/12/01 07:29:17;;;;;;;;;44.50;36.00;;;;;7.15;69.87;101826.22;5073922;28;45567;-78
2022/12/01 07:31:43;;;;;;;;;31.75;26.50;;;;;7.14;69.62;101814.09;5074100;28;46205;-78
2022/12/01 07:34:11;;;;;;;;;45.75;33.25;;;;;6.98;69.53;101792.97;5073677;28;45695;-77
2022/12/01 07:36:37;;;;;;;;;37.25;34.25;;;;;7.13;69.54;101813.22;5073395;28;45638;-78
2022/12/01 07:39:06;;;;;;;;;38.00;26.50;;;;;7.14;69.40;101829.72;5073562;28;45894;-76
2022/12/01 07:41:32;;;;;;;;;42.50;32.00;;;;;7.09;69.63;101827.28;5073569;28;45863;-76
2022/12/01 07:43:58;;;;;;;;;35.00;30.50;;;;;7.03;69.41;101826.66;5073588;28;45656;-76
2022/12/01 07:46:25;;;;;;;;;35.50;25.50;;;;;6.81;69.50;101794.47;5073532;28;45829;-78
2022/12/01 07:48:52;;;;;;;;;33.25;28.50;;;;;6.97;69.67;101826.88;5073942;28;45805;-78
2022/12/01 07:51:18;;;;;;;;;36.25;29.00;;;;;7.01;69.68;101847.59;5055639;28;47527;-77
2022/12/01 07:57:05;;;;;;;;;35.00;30.00;;;;;6.97;69.55;101852.94;5072553;28;45947;-77
2022/12/01 07:59:30;;;;;;;;;43.25;36.00;;;;;6.94;69.53;101848.69;5073812;28;46048;-78
2022/12/01 08:01:56;;;;;;;;;33.25;28.00;;;;;6.95;69.47;101859.97;5073708;28;45605;-78
2022/12/01 08:04:21;;;;;;;;;35.75;29.00;;;;;6.95;69.63;101863.44;5073941;28;45759;-78
2022/12/01 08:06:46;;;;;;;;;34.75;26.00;;;;;6.95;69.68;101873.00;5074023;28;45696;-78
2022/12/01 08:12:34;;;;;;;;;42.25;28.75;;;;;6.95;69.96;101873.00;5075334;28;46042;-78
2022/12/01 08:15:00;;;;;;;;;31.00;28.25;;;;;6.94;69.92;101876.50;5073576;28;47208;-79
2022/12/01 08:17:25;;;;;;;;;34.75;28.50;;;;;6.89;70.04;101876.66;5055090;28;46511;-77
2022/12/01 08:19:50;;;;;;;;;43.25;30.50;;;;;6.90;69.61;101865.34;5073932;28;45827;-79
2022/12/01 08:22:17;;;;;;;;;38.50;33.50;;;;;6.90;69.89;101875.78;5073447;28;46305;-78
2022/12/01 08:24:42;;;;;;;;;34.75;27.50;;;;;6.86;69.75;101873.31;5072137;28;46122;-76
2022/12/01 08:27:08;;;;;;;;;26.00;16.00;;;;;6.90;69.88;101874.91;5072285;28;45663;-78
2022/12/01 08:29:34;;;;;;;;;30.75;24.50;;;;;6.87;69.79;101877.63;5073331;28;45529;-77
2022/12/01 08:32:01;;;;;;;;;31.00;26.00;;;;;6.84;69.72;101867.31;5072664;28;47635;-78
2022/12/01 08:34:26;;;;;;;;;11.00;10.75;;;;;6.83;69.88;101866.47;5072804;28;46930;-77
2022/12/01 08:36:53;;;;;;;;;32.25;25.00;;;;;6.86;69.76;101883.72;5071974;28;45879;-78
2022/12/01 08:42:40;;;;;;;;;30.25;24.75;;;;;6.82;69.90;101877.78;5073062;28;46071;-78
2022/12/01 08:45:06;;;;;;;;;30.75;27.00;;;;;6.81;69.85;101872.63;5072655;28;46241;-78
2022/12/01 08:47:32;;;;;;;;;30.75;27.25;;;;;6.79;69.93;101870.09;5071554;28;45844;-78
2022/12/01 08:49:57;;;;;;;;;28.00;23.75;;;;;6.82;69.85;101876.94;5073016;28;45821;-77
2022/12/01 08:52:22;;;;;;;;;29.00;24.50;;;;;6.80;69.96;101876.16;5072684;28;46608;-77
2022/12/01 08:54:47;;;;;;;;;42.50;28.00;;;;;6.79;70.33;101884.88;5072820;28;45735;-77
2022/12/01 08:57:13;;;;;;;;;25.50;21.00;;;;;6.84;70.31;101888.16;5071428;28;45805;-76
2022/12/01 08:59:38;;;;;;;;;36.00;24.75;;;;;6.78;70.06;101870.97;5072877;28;45697;-77
2022/12/01 09:02:05;;;;;;;;;30.75;24.75;;;;;6.77;70.12;101882.31;5072651;28;46334;-76
2022/12/01 09:04:31;;;;;;;;;26.50;20.75;;;;;6.82;70.17;101876.94;5072163;28;47156;-78
2022/12/01 09:06:56;;;;;;;;;26.00;23.25;;;;;6.87;70.32;101891.50;5073571;28;45701;-77
2022/12/01 09:12:45;;;;;;;;;24.75;20.50;;;;;6.92;70.16;101884.38;5074280;28;45657;-77
2022/12/01 09:15:11;;;;;;;;;29.75;24.50;;;;;6.92;70.20;101886.97;5074219;28;45853;-76
2022/12/01 09:17:36;;;;;;;;;31.25;26.75;;;;;6.86;70.20;101876.75;5073885;28;45682;-77
2022/12/01 09:20:02;;;;;;;;;29.00;24.25;;;;;6.94;70.07;101889.53;5074425;28;45876;-78
2022/12/01 09:22:27;;;;;;;;;32.25;24.75;;;;;6.84;70.17;101875.97;5072697;28;46030;-77
2022/12/01 09:28:16;;;;;;;;;27.25;23.00;;;;;6.92;69.84;101873.94;5071903;28;45891;-77
2022/12/01 09:30:43;;;;;;;;;24.50;22.75;;;;;7.00;69.81;101881.50;5071978;28;45619;-77
2022/12/01 09:33:08;;;;;;;;;35.25;25.50;;;;;6.99;69.77;101872.81;5071950;28;46892;-76
2022/12/01 09:35:33;;;;;;;;;29.25;24.00;;;;;7.07;69.62;101883.00;5071676;28;45896;-77
2022/12/01 09:37:59;;;;;;;;;29.75;24.00;;;;;7.11;69.29;101889.78;5071482;28;45612;-76
2022/12/01 09:40:33;;;;;;;;;27.00;22.50;;;;;7.13;69.63;101880.97;5072232;28;45828;-77
2022/12/01 09:43:03;;;;;;;;;27.50;21.50;;;;;7.14;69.45;101880.09;5071588;28;46502;-78
2022/12/01 09:45:35;;;;;;;;;31.25;24.00;;;;;7.21;69.45;101890.28;5071091;28;46254;-76
2022/12/01 09:48:03;;;;;;;;;29.00;25.75;;;;;7.26;69.46;101884.00;5071393;28;45487;-76
2022/12/01 09:50:30;;;;;;;;;29.25;21.25;;;;;7.29;69.36;101889.09;5074699;27;45902;-77
2022/12/01 09:52:57;;;;;;;;;28.50;26.25;;;;;7.33;69.51;101882.03;5075359;28;47433;-77
2022/12/01 09:55:24;;;;;;;;;26.50;22.25;;;;;7.35;69.26;101886.25;5074852;28;47151;-76
2022/12/01 09:57:55;;;;;;;;;31.50;24.25;;;;;7.36;69.39;101887.09;5075480;28;45748;-77
2022/12/01 10:00:33;;;;;;;;;32.75;29.00;;;;;7.37;69.39;101881.84;5075535;28;45835;-77
2022/12/01 10:03:39;;;;;;;;;30.25;28.75;;;;;7.39;69.26;101892.22;5057371;28;46345;-77
2022/12/01 10:06:13;;;;;;;;;29.50;25.00;;;;;7.39;69.15;101887.88;5016044;28;46096;-77
2022/12/01 10:08:56;;;;;;;;;39.75;26.25;;;;;7.42;69.23;101879.91;5031568;28;46848;-76
2022/12/01 10:11:39;;;;;;;;;36.00;28.75;;;;;7.44;68.99;101880.72;5032591;28;45842;-78
2022/12/01 10:14:09;;;;;;;;;30.50;25.50;;;;;7.47;69.20;101877.13;5031776;28;46613;-78
2022/12/01 10:16:51;;;;;;;;;26.75;23.25;;;;;7.50;69.05;101880.47;5031268;28;47596;-76
2022/12/01 10:19:54;;;;;;;;;38.25;28.75;;;;;7.53;68.57;101875.16;5016899;28;45778;-77
2022/12/01 10:22:38;;;;;;;;;31.75;25.00;;;;;7.54;68.50;101876.00;4991926;28;45739;-78
2022/12/01 10:25:03;;;;;;;;;25.50;22.75;;;;;7.54;68.50;101869.03;4991616;28;46534;-76
2022/12/01 10:28:11;;;;;;;;;35.50;25.75;;;;;7.53;68.58;101864.72;4991143;28;45809;-78
2022/12/01 10:30:48;;;;;;;;;37.50;26.75;;;;;7.54;68.57;101866.44;4933506;28;46061;-78
2022/12/01 10:33:25;;;;;;;;;25.50;20.00;;;;;7.55;68.07;101873.34;4933615;28;46024;-78
2022/12/01 10:35:52;;;;;;;;;21.25;20.25;;;;;7.57;68.07;101875.88;4933060;28;46049;-78
2022/12/01 10:41:40;;;;;;;;;24.75;21.50;;;;;7.52;67.99;101855.19;4943493;28;45560;-77
2022/12/01 10:44:06;;;;;;;;;24.50;20.50;;;;;7.52;67.85;101849.97;4952427;28;45705;-77
2022/12/01 10:46:48;;;;;;;;;26.00;21.75;;;;;7.57;68.12;101861.06;4951840;28;47606;-77
2022/12/01 10:49:16;;;;;;;;;29.00;21.50;;;;;7.60;68.06;101860.13;4952592;28;46222;-77
2022/12/01 10:51:53;;;;;;;;;29.75;23.50;;;;;7.60;68.19;101847.09;4952414;28;45757;-76
2022/12/01 10:54:56;;;;;;;;;31.50;24.50;;;;;7.65;67.95;101852.13;4952875;28;45706;-78
2022/12/01 10:57:22;;;;;;;;;26.25;22.25;;;;;7.64;68.00;101853.03;4951907;28;46862;-76
2022/12/01 10:59:59;;;;;;;;;35.50;25.50;;;;;7.63;68.06;101851.31;4981848;28;46045;-76
2022/12/01 11:02:27;;;;;;;;;30.25;25.25;;;;;7.65;67.83;101841.69;4990749;28;45941;-76
2022/12/01 11:05:02;;;;;;;;;30.75;26.50;;;;;7.64;68.20;101842.59;5044718;28;45788;-76
2022/12/01 11:07:40;;;;;;;;;28.50;22.00;;;;;7.66;67.71;101853.81;5073163;28;45965;-76
2022/12/01 11:10:30;;;;;;;;;29.00;26.25;;;;;7.65;67.65;101846.91;5073895;28;46146;-76
2022/12/01 11:13:27;;;;;;;;;24.00;19.75;;;;;7.65;67.55;101839.94;5074197;28;45877;-77
2022/12/01 11:15:55;;;;;;;;;23.50;19.75;;;;;7.67;67.64;101832.88;5073573;28;45594;-76
2022/12/01 11:18:27;;;;;;;;;29.25;25.00;;;;;7.69;67.27;101844.09;5054705;28;47519;-77
2022/12/01 11:21:06;;;;;;;;;23.75;20.50;;;;;7.72;67.33;101845.75;5055476;28;47366;-76
2022/12/01 11:23:44;;;;;;;;;27.00;21.50;;;;;7.70;67.09;101837.13;5073940;28;45755;-77
2022/12/01 11:26:29;;;;;;;;;24.00;19.25;;;;;7.71;66.97;101831.88;5073590;28;45789;-76
2022/12/01 11:29:02;;;;;;;;;28.50;22.75;;;;;7.75;67.22;101841.25;5073812;28;46668;-76
2022/12/01 11:31:47;;;;;;;;;27.50;21.25;;;;;7.79;67.41;101837.63;5073496;28;47085;-76
2022/12/01 11:34:18;;;;;;;;;30.50;26.00;;;;;7.81;67.42;101827.97;5073701;27;45930;-75
2022/12/01 11:37:03;;;;;;;;;27.75;24.00;;;;;7.86;67.35;101835.63;5073507;28;45688;-76
2022/12/01 11:42:53;;;;;;;;;34.00;24.25;;;;;7.84;67.39;101821.78;5073373;28;46123;-75
2022/12/01 11:45:21;;;;;;;;;34.25;25.25;;;;;7.89;67.14;101852.00;5073305;28;45694;-75
2022/12/01 11:48:01;;;;;;;;;35.50;31.00;;;;;7.88;67.31;101832.03;5073605;28;46164;-75
2022/12/01 11:50:30;;;;;;;;;25.50;20.50;;;;;7.87;66.98;101825.13;5073622;28;47122;-75
2022/12/01 11:52:55;;;;;;;;;33.75;28.75;;;;;7.86;66.87;101830.41;5055112;28;46948;-76
2022/12/01 11:58:45;;;;;;;;;26.00;21.00;;;;;7.79;66.93;101827.19;5072963;28;45827;-77
2022/12/01 12:01:30;;;;;;;;;33.25;20.25;;;;;7.83;66.74;101820.06;5072812;28;46657;-75
2022/12/01 12:04:14;;;;;;;;;29.75;25.50;;;;;7.81;66.76;101827.97;5073169;28;46204;-78
2022/12/01 12:06:51;;;;;;;;;26.75;24.00;;;;;7.81;66.86;101816.69;5072619;28;45697;-74
2022/12/01 12:09:37;;;;;;;;;23.25;18.50;;;;;7.78;66.96;101807.22;5073367;28;45649;-75
2022/12/01 12:12:34;;;;;;;;;26.75;22.00;;;;;7.83;66.87;101807.03;5072656;28;47586;-75
2022/12/01 12:15:15;;;;;;;;;23.00;20.00;;;;;7.83;66.71;101810.50;5072969;28;46796;-77
2022/12/01 12:18:17;;;;;;;;;25.25;21.75;;;;;7.84;66.62;101811.34;5073046;28;45572;-77
2022/12/01 12:20:43;;;;;;;;;32.50;28.00;;;;;7.84;66.72;101806.97;4990420;28;45975;-77
2022/12/01 12:23:23;;;;;;;;;31.00;24.25;;;;;7.87;66.79;101804.25;4990698;28;45690;-77
2022/12/01 12:29:47;;;;;;;;;32.25;29.00;;;;;7.89;66.79;101806.78;4990362;28;45733;-78
2022/12/01 12:32:15;;;;;;;;;26.50;22.50;;;;;7.91;66.64;101804.97;4990138;28;45659;-77
2022/12/01 12:34:55;;;;;;;;;34.75;22.00;;;;;7.92;66.66;101798.84;4990135;28;47620;-76
2022/12/01 12:37:32;;;;;;;;;27.50;24.50;;;;;7.90;66.52;101805.88;4991049;28;46514;-76
2022/12/01 12:40:36;;;;;;;;;26.75;23.25;;;;;7.89;66.37;101804.19;4991071;28;45635;-74
2022/12/01 12:43:20;;;;;;;;;26.50;23.25;;;;;7.88;66.71;101799.91;4952198;28;46114;-76
2022/12/01 12:46:11;;;;;;;;;29.00;24.50;;;;;7.88;66.56;101797.28;4952380;28;45974;-75
2022/12/01 12:49:05;;;;;;;;;30.75;23.00;;;;;7.89;66.82;101799.81;4952580;28;47272;-76
2022/12/01 12:51:38;;;;;;;;;29.00;23.25;;;;;7.75;66.52;101773.44;4953175;28;46330;-77
2022/12/01 12:54:18;;;;;;;;;22.75;19.00;;;;;7.94;66.66;101797.00;4952730;28;45722;-76
2022/12/01 12:56:47;;;;;;;;;27.00;24.75;;;;;7.95;66.65;101798.72;4950955;28;46458;-75
2022/12/01 12:59:20;;;;;;;;;32.75;27.25;;;;;7.95;66.62;101796.09;5009928;28;46306;-77